createdAt,value
2016-09-11T00:00:15.186Z,99.68
2016-09-11T00:01:15.136Z,99.99
2016-09-11T00:02:15.491Z,99.63
2016-09-11T00:03:15.303Z,99.44
2016-09-11T00:04:15.668Z,99.58
2016-09-11T00:05:15.246Z,99.58
2016-09-11T00:06:15.255Z,99.54
2016-09-11T00:07:15.295Z,99.63
2016-09-11T00:08:15.616Z,99.92
2016-09-11T00:09:15.330Z,99.99
2016-09-11T00:10:15.352Z,99.99
2016-09-11T00:11:15.381Z,99.99
2016-09-11T00:12:15.718Z,99.99
2016-09-11T00:13:15.746Z,99.99
2016-09-11T00:14:15.834Z,99.99
2016-09-11T00:15:15.483Z,99.99
2016-09-11T00:16:15.555Z,99.99
2016-09-11T00:17:15.518Z,99.99
2016-09-11T00:18:15.604Z,99.99
2016-09-11T00:19:15.883Z,99.99
2016-09-11T00:20:15.602Z,99.99
2016-09-11T00:21:15.636Z,99.99
2016-09-11T00:22:15.952Z,99.99
2016-09-11T00:23:15.657Z,99.99
2016-09-11T00:24:15.704Z,99.99
2016-09-11T00:25:16.065Z,99.99
2016-09-11T00:26:15.795Z,99.99
2016-09-11T00:27:15.812Z,99.99
2016-09-11T00:28:15.794Z,99.99
2016-09-11T00:29:16.137Z,99.99
2016-09-11T00:30:15.837Z,99.99
2016-09-11T00:31:15.866Z,99.99
2016-09-11T00:32:15.895Z,99.99
2016-09-11T00:33:16.223Z,99.99
2016-09-11T00:34:15.939Z,99.99
2016-09-11T00:35:15.968Z,99.99
2016-09-11T00:36:16.299Z,99.99
2016-09-11T00:37:16.012Z,99.99
2016-09-11T00:38:16.036Z,99.99
2016-09-11T00:39:16.048Z,99.99
2016-09-11T00:40:16.083Z,99.99
2016-09-11T00:41:16.105Z,99.99
2016-09-11T00:42:16.433Z,99.99
2016-09-11T00:43:16.163Z,99.99
2016-09-11T00:44:16.189Z,99.99
2016-09-11T00:45:16.204Z,99.99
2016-09-11T00:46:16.545Z,99.99
2016-09-11T00:47:16.260Z,99.99
2016-09-11T00:48:16.284Z,99.99
2016-09-11T00:49:16.331Z,99.99
2016-09-11T00:50:16.341Z,99.99
2016-09-11T00:51:16.353Z,99.99
2016-09-11T00:52:16.372Z,99.99
2016-09-11T00:53:16.412Z,99.99
2016-09-11T00:54:16.747Z,99.99
2016-09-11T00:55:16.473Z,99.99
2016-09-11T00:56:16.784Z,99.99
2016-09-11T00:57:16.506Z,99.99
2016-09-11T00:58:16.835Z,99.99
2016-09-11T00:59:16.547Z,99.99
2016-09-11T01:00:16.582Z,99.99
2016-09-11T01:01:16.598Z,99.99
2016-09-11T01:02:16.708Z,99.87
2016-09-11T01:03:16.647Z,99.92
2016-09-11T01:04:16.986Z,99.63
2016-09-11T01:05:16.702Z,99.92
2016-09-11T01:06:16.764Z,99.83
2016-09-11T01:07:16.745Z,99.44
2016-09-11T01:08:16.763Z,99.54
2016-09-11T01:09:16.790Z,99.25
2016-09-11T01:10:17.127Z,99.15
2016-09-11T01:11:16.840Z,99.25
2016-09-11T01:12:16.865Z,98.96
2016-09-11T01:13:16.892Z,99.35
2016-09-11T01:14:16.923Z,99.44
2016-09-11T01:15:16.951Z,99.35
2016-09-11T01:16:16.967Z,99.35
2016-09-11T01:17:16.995Z,98.96
2016-09-11T01:18:17.017Z,98.86
2016-09-11T01:19:17.050Z,99.35
2016-09-11T01:20:17.066Z,98.86
2016-09-11T01:21:17.093Z,98.86
2016-09-11T01:22:17.272Z,98.48
2016-09-11T01:23:17.141Z,98.68
2016-09-11T01:24:17.475Z,98.68
2016-09-11T01:25:17.206Z,98.68
2016-09-11T01:26:17.216Z,98.58
2016-09-11T01:27:17.243Z,98.77
2016-09-11T01:28:17.571Z,98.96
2016-09-11T01:29:17.294Z,98.86
2016-09-11T01:30:17.315Z,99.54
2016-09-11T01:31:17.386Z,98.86
2016-09-11T01:32:17.391Z,99.25
2016-09-11T01:33:17.759Z,98.29
2016-09-11T01:34:17.410Z,98.58
2016-09-11T01:35:17.466Z,98.29
2016-09-11T01:36:17.454Z,98.1
2016-09-11T01:37:17.499Z,98.68
2016-09-11T01:38:17.502Z,98.86
2016-09-11T01:39:17.535Z,98.29
2016-09-11T01:40:17.554Z,98.39
2016-09-11T01:41:17.659Z,98.19
2016-09-11T01:42:17.604Z,98.58
2016-09-11T01:43:17.632Z,98.63
2016-09-11T01:44:17.766Z,99.15
2016-09-11T01:45:17.684Z,99.2
2016-09-11T01:46:17.715Z,99.4
2016-09-11T01:47:17.738Z,99.3
2016-09-11T01:48:17.755Z,99.1
2016-09-11T01:49:17.778Z,99.58
2016-09-11T01:50:17.804Z,99.4
2016-09-11T01:51:17.974Z,99.99
2016-09-11T01:52:17.843Z,99.97
2016-09-11T01:53:18.205Z,99.99
2016-09-11T01:54:18.222Z,99.99
2016-09-11T01:55:17.983Z,99.99
2016-09-11T01:56:18.263Z,99.99
2016-09-11T01:57:18.348Z,99.99
2016-09-11T01:58:17.994Z,99.99
2016-09-11T01:59:18.030Z,99.99
2016-09-11T02:00:18.357Z,99.99
2016-09-11T02:01:18.378Z,99.99
2016-09-11T02:02:18.108Z,99.99
2016-09-11T02:03:18.114Z,99.99
2016-09-11T02:04:18.461Z,99.99
2016-09-11T02:05:18.165Z,99.99
2016-09-11T02:06:18.186Z,99.99
2016-09-11T02:07:18.214Z,99.99
2016-09-11T02:08:18.559Z,99.99
2016-09-11T02:09:18.285Z,99.99
2016-09-11T02:10:18.594Z,99.99
2016-09-11T02:11:18.320Z,99.99
2016-09-11T02:12:18.534Z,99.99
2016-09-11T02:13:18.355Z,99.99
2016-09-11T02:14:18.689Z,99.99
2016-09-11T02:15:18.445Z,99.99
2016-09-11T02:16:18.460Z,99.99
2016-09-11T02:17:18.475Z,99.99
2016-09-11T02:18:18.474Z,99.99
2016-09-11T02:19:18.498Z,99.99
2016-09-11T02:20:18.549Z,99.99
2016-09-11T02:21:18.543Z,99.99
2016-09-11T02:22:18.576Z,99.99
2016-09-11T02:23:18.589Z,99.99
2016-09-11T02:24:18.622Z,99.99
2016-09-11T02:25:18.646Z,99.99
2016-09-11T02:26:18.975Z,99.99
2016-09-11T02:27:18.683Z,99.99
2016-09-11T02:28:18.703Z,99.99
2016-09-11T02:29:18.743Z,99.99
2016-09-11T02:30:18.768Z,99.99
2016-09-11T02:31:18.783Z,99.99
2016-09-11T02:32:18.846Z,99.99
2016-09-11T02:33:18.837Z,99.99
2016-09-11T02:34:18.855Z,99.99
2016-09-11T02:35:19.228Z,99.99
2016-09-11T02:36:18.920Z,99.99
2016-09-11T02:37:18.944Z,99.99
2016-09-11T02:38:19.422Z,99.99
2016-09-11T02:39:19.288Z,99.99
2016-09-11T02:40:18.991Z,99.99
2016-09-11T02:41:19.405Z,99.99
2016-09-11T02:42:19.062Z,99.99
2016-09-11T02:43:19.477Z,99.99
2016-09-11T02:44:19.101Z,99.99
2016-09-11T02:45:19.115Z,99.99
2016-09-11T02:46:19.340Z,99.99
2016-09-11T02:47:19.463Z,99.99
2016-09-11T02:48:19.494Z,99.99
2016-09-11T02:49:19.203Z,99.99
2016-09-11T02:50:19.285Z,99.99
2016-09-11T02:51:19.559Z,99.99
2016-09-11T02:52:19.393Z,99.99
2016-09-11T02:53:19.308Z,99.99
2016-09-11T02:54:19.403Z,99.99
2016-09-11T02:55:19.345Z,99.99
2016-09-11T02:56:19.757Z,99.99
2016-09-11T02:57:19.713Z,99.99
2016-09-11T02:58:19.429Z,99.99
2016-09-11T02:59:19.581Z,99.99
2016-09-11T03:00:19.773Z,99.99
2016-09-11T03:01:19.558Z,99.99
2016-09-11T03:02:19.545Z,99.99
2016-09-11T03:03:19.635Z,99.99
2016-09-11T03:04:19.655Z,99.99
2016-09-11T03:05:19.945Z,99.99
2016-09-11T03:06:19.605Z,99.99
2016-09-11T03:07:19.945Z,99.99
2016-09-11T03:08:19.651Z,99.99
2016-09-11T03:09:19.987Z,99.99
2016-09-11T03:10:20.077Z,99.99
2016-09-11T03:11:19.724Z,99.99
2016-09-11T03:12:19.798Z,99.99
2016-09-11T03:13:19.764Z,99.99
2016-09-11T03:14:19.811Z,99.99
2016-09-11T03:15:19.819Z,99.99
2016-09-11T03:16:19.900Z,99.99
2016-09-11T03:17:19.869Z,99.99
2016-09-11T03:18:20.239Z,99.99
2016-09-11T03:19:19.936Z,99.99
2016-09-11T03:20:19.918Z,99.99
2016-09-11T03:21:19.957Z,99.99
2016-09-11T03:22:20.032Z,99.99
2016-09-11T03:23:19.993Z,99.99
2016-09-11T03:24:20.049Z,99.99
2016-09-11T03:25:20.037Z,99.99
2016-09-11T03:26:20.398Z,99.99
2016-09-11T03:27:20.409Z,99.99
2016-09-11T03:28:20.136Z,99.99
2016-09-11T03:29:20.394Z,99.99
2016-09-11T03:30:20.180Z,99.99
2016-09-11T03:31:20.192Z,99.99
2016-09-11T03:32:20.513Z,99.99
2016-09-11T03:33:20.244Z,99.99
2016-09-11T03:34:20.269Z,99.99
2016-09-11T03:35:20.278Z,99.99
2016-09-11T03:36:20.379Z,99.99
2016-09-11T03:37:20.663Z,99.99
2016-09-11T03:38:20.653Z,99.99
2016-09-11T03:39:20.677Z,99.99
2016-09-11T03:40:20.495Z,99.99
2016-09-11T03:41:20.425Z,99.99
2016-09-11T03:42:20.437Z,99.99
2016-09-11T03:43:20.471Z,99.99
2016-09-11T03:44:20.487Z,99.99
2016-09-11T03:45:20.510Z,99.99
2016-09-11T03:46:20.535Z,99.99
2016-09-11T03:47:20.564Z,99.99
2016-09-11T03:48:20.578Z,99.99
2016-09-11T03:49:20.609Z,99.99
2016-09-11T03:50:20.615Z,99.99
2016-09-11T03:51:20.654Z,99.99
2016-09-11T03:52:20.663Z,99.99
2016-09-11T03:53:20.680Z,99.99
2016-09-11T03:54:21.050Z,99.99
2016-09-11T03:55:20.735Z,99.99
2016-09-11T03:56:20.907Z,99.99
2016-09-11T03:57:20.784Z,99.99
2016-09-11T03:58:21.122Z,99.99
2016-09-11T03:59:21.135Z,99.99
2016-09-11T04:00:21.261Z,99.99
2016-09-11T04:01:20.875Z,99.99
2016-09-11T04:02:21.384Z,99.99
2016-09-11T04:03:21.294Z,99.99
2016-09-11T04:04:20.984Z,99.99
2016-09-11T04:05:21.609Z,99.99
2016-09-11T04:06:20.998Z,99.99
2016-09-11T04:07:21.035Z,99.99
2016-09-11T04:08:21.025Z,99.99
2016-09-11T04:09:21.157Z,99.99
2016-09-11T04:10:21.394Z,99.99
2016-09-11T04:11:21.157Z,99.99
2016-09-11T04:12:21.425Z,99.99
2016-09-11T04:13:21.675Z,99.99
2016-09-11T04:14:21.182Z,99.99
2016-09-11T04:15:21.448Z,99.99
2016-09-11T04:16:21.627Z,99.99
2016-09-11T04:17:21.452Z,99.99
2016-09-11T04:18:21.640Z,99.99
2016-09-11T04:19:21.595Z,99.99
2016-09-11T04:20:21.703Z,99.99
2016-09-11T04:21:21.482Z,99.99
2016-09-11T04:22:21.705Z,99.99
2016-09-11T04:23:21.489Z,99.99
2016-09-11T04:24:21.665Z,99.99
2016-09-11T04:25:21.523Z,99.99
2016-09-11T04:26:21.714Z,99.99
2016-09-11T04:27:21.514Z,99.99
2016-09-11T04:28:21.804Z,99.99
2016-09-11T04:29:21.813Z,99.99
2016-09-11T04:30:21.839Z,99.99
2016-09-11T04:31:21.865Z,99.99
2016-09-11T04:32:21.881Z,99.99
2016-09-11T04:33:21.914Z,99.99
2016-09-11T04:34:21.625Z,99.99
2016-09-11T04:35:21.956Z,99.99
2016-09-11T04:36:21.658Z,99.99
2016-09-11T04:37:22.011Z,99.99
2016-09-11T04:38:22.007Z,99.99
2016-09-11T04:39:22.053Z,99.99
2016-09-11T04:40:22.061Z,99.99
2016-09-11T04:41:21.774Z,99.99
2016-09-11T04:42:22.115Z,99.99
2016-09-11T04:43:21.823Z,99.99
2016-09-11T04:44:21.903Z,99.99
2016-09-11T04:45:21.863Z,99.99
2016-09-11T04:46:21.954Z,99.99
2016-09-11T04:47:22.225Z,99.99
2016-09-11T04:48:22.255Z,99.99
2016-09-11T04:49:21.953Z,99.99
2016-09-11T04:50:22.073Z,99.99
2016-09-11T04:51:22.317Z,99.99
2016-09-11T04:52:22.032Z,99.99
2016-09-11T04:53:22.355Z,99.99
2016-09-11T04:54:22.368Z,99.99
2016-09-11T04:55:22.395Z,99.99
2016-09-11T04:56:22.114Z,99.99
2016-09-11T04:57:22.134Z,99.99
2016-09-11T04:58:22.473Z,99.99
2016-09-11T04:59:22.185Z,99.99
2016-09-11T05:00:22.518Z,99.99
2016-09-11T05:01:22.534Z,99.99
2016-09-11T05:02:22.554Z,99.99
2016-09-11T05:03:22.268Z,99.99
2016-09-11T05:04:22.293Z,99.99
2016-09-11T05:05:22.623Z,99.99
2016-09-11T05:06:22.641Z,99.99
2016-09-11T05:07:22.735Z,99.99
2016-09-11T05:08:22.695Z,99.99
2016-09-11T05:09:22.715Z,99.99
2016-09-11T05:10:22.423Z,99.99
2016-09-11T05:11:22.755Z,99.99
2016-09-11T05:12:22.775Z,99.99
2016-09-11T05:13:22.802Z,99.99
2016-09-11T05:14:22.855Z,99.99
2016-09-11T05:15:22.863Z,99.99
2016-09-11T05:16:22.566Z,99.99
2016-09-11T05:17:22.902Z,99.99
2016-09-11T05:18:22.914Z,99.99
2016-09-11T05:19:22.937Z,99.99
2016-09-11T05:20:22.957Z,99.99
2016-09-11T05:21:22.969Z,99.99
2016-09-11T05:22:23.001Z,99.99
2016-09-11T05:23:23.031Z,99.99
2016-09-11T05:24:22.745Z,99.99
2016-09-11T05:25:22.780Z,99.99
2016-09-11T05:26:23.112Z,99.99
2016-09-11T05:27:23.121Z,99.99
2016-09-11T05:28:23.154Z,99.99
2016-09-11T05:29:22.854Z,99.99
2016-09-11T05:30:23.189Z,99.99
2016-09-11T05:31:23.239Z,99.99
2016-09-11T05:32:23.235Z,99.99
2016-09-11T05:33:22.942Z,99.99
2016-09-11T05:34:23.283Z,99.99
2016-09-11T05:35:22.994Z,99.99
2016-09-11T05:36:23.315Z,99.99
2016-09-11T05:37:23.045Z,99.99
2016-09-11T05:38:23.365Z,99.29
2016-09-11T05:39:23.407Z,99.99
2016-09-11T05:40:23.444Z,99.63
2016-09-11T05:41:23.134Z,99.24
2016-09-11T05:42:23.469Z,98.77
2016-09-11T05:43:23.174Z,98.67
2016-09-11T05:44:23.566Z,99.24
2016-09-11T05:45:23.522Z,99.15
2016-09-11T05:46:23.552Z,98.67
2016-09-11T05:47:23.580Z,98.86
2016-09-11T05:48:23.658Z,98.14
2016-09-11T05:49:23.320Z,97.81
2016-09-11T05:50:23.645Z,98.14
2016-09-11T05:51:23.673Z,98.05
2016-09-11T05:52:23.684Z,97.38
2016-09-11T05:53:23.716Z,97.47
2016-09-11T05:54:23.434Z,97.19
2016-09-11T05:55:23.765Z,97.09
2016-09-11T05:56:23.779Z,96.85
2016-09-11T05:57:23.801Z,96.47
2016-09-11T05:58:23.585Z,96.66
2016-09-11T05:59:23.863Z,96.56
2016-09-11T06:00:23.876Z,96.37
2016-09-11T06:01:23.907Z,96.08
2016-09-11T06:02:23.638Z,96.47
2016-09-11T06:03:23.956Z,96.03
2016-09-11T06:04:23.983Z,95.84
2016-09-11T06:05:24.006Z,95.65
2016-09-11T06:06:23.704Z,95.36
2016-09-11T06:07:24.044Z,94.21
2016-09-11T06:08:23.766Z,93.92
2016-09-11T06:09:23.895Z,94.16
2016-09-11T06:10:24.117Z,93.49
2016-09-11T06:11:24.149Z,92.72
2016-09-11T06:12:23.897Z,92.24
2016-09-11T06:13:23.933Z,92.19
2016-09-11T06:14:23.925Z,91.32
2016-09-11T06:15:23.924Z,90.75
2016-09-11T06:16:23.960Z,90.26
2016-09-11T06:17:24.340Z,89.35
2016-09-11T06:18:24.357Z,88.57
2016-09-11T06:19:24.356Z,89.01
2016-09-11T06:20:24.055Z,87.95
2016-09-11T06:21:24.090Z,87.66
2016-09-11T06:22:24.105Z,86.99
2016-09-11T06:23:24.135Z,86.6
2016-09-11T06:24:24.177Z,86.65
2016-09-11T06:25:24.687Z,85.78
2016-09-11T06:26:24.473Z,85.87
2016-09-11T06:27:24.516Z,85.87
2016-09-11T06:28:24.770Z,84.95
2016-09-11T06:29:24.428Z,84.38
2016-09-11T06:30:24.414Z,84.38
2016-09-11T06:31:24.589Z,83.26
2016-09-11T06:32:24.777Z,82.29
2016-09-11T06:33:24.455Z,81.85
2016-09-11T06:34:24.463Z,81.6
2016-09-11T06:35:24.424Z,81.02
2016-09-11T06:36:24.483Z,80.74
2016-09-11T06:37:24.466Z,80.54
2016-09-11T06:38:24.515Z,80.45
2016-09-11T06:39:24.848Z,80.16
2016-09-11T06:40:24.564Z,79.43
2016-09-11T06:41:25.420Z,78.75
2016-09-11T06:42:24.659Z,78.21
2016-09-11T06:43:24.950Z,77.15
2016-09-11T06:44:24.717Z,77.28
2016-09-11T06:45:24.685Z,75.54
2016-09-11T06:46:24.715Z,74.65
2016-09-11T06:47:25.153Z,72.56
2016-09-11T06:48:25.097Z,71.47
2016-09-11T06:49:24.793Z,70.4
2016-09-11T06:50:24.829Z,69.41
2016-09-11T06:51:24.899Z,67.76
2016-09-11T06:52:24.869Z,67.02
2016-09-11T06:53:25.212Z,65.89
2016-09-11T06:54:25.235Z,63.88
2016-09-11T06:55:25.262Z,61.8
2016-09-11T06:56:24.976Z,61.32
2016-09-11T06:57:25.022Z,60.28
2016-09-11T06:58:25.057Z,59.14
2016-09-11T06:59:25.071Z,57.78
2016-09-11T07:00:25.114Z,57.2
2016-09-11T07:01:25.114Z,56.51
2016-09-11T07:02:25.145Z,55.99
2016-09-11T07:03:25.203Z,55.4
2016-09-11T07:04:25.347Z,54.46
2016-09-11T07:05:25.225Z,54.09
2016-09-11T07:06:25.609Z,53.24
2016-09-11T07:07:25.300Z,52.48
2016-09-11T07:08:25.320Z,51.14
2016-09-11T07:09:25.345Z,50.56
2016-09-11T07:10:25.709Z,49.68
2016-09-11T07:11:25.725Z,50.14
2016-09-11T07:12:25.436Z,50.53
2016-09-11T07:13:25.493Z,49.49
2016-09-11T07:14:25.506Z,49.66
2016-09-11T07:15:25.520Z,50.04
2016-09-11T07:16:25.574Z,50.9
2016-09-11T07:17:25.580Z,50.97
2016-09-11T07:18:25.617Z,51.29
2016-09-11T07:19:25.954Z,51.95
2016-09-11T07:20:25.982Z,53.48
2016-09-11T07:21:25.701Z,54.33
2016-09-11T07:22:25.727Z,53.55
2016-09-11T07:23:25.754Z,53.38
2016-09-11T07:24:25.807Z,52.31
2016-09-11T07:25:25.813Z,52.89
2016-09-11T07:26:26.286Z,52.34
2016-09-11T07:27:25.878Z,51.53
2016-09-11T07:28:25.972Z,51.82
2016-09-11T07:29:26.002Z,51.92
2016-09-11T07:30:26.379Z,51.92
2016-09-11T07:31:25.994Z,51.75
2016-09-11T07:32:26.050Z,51.95
2016-09-11T07:33:26.045Z,52.44
2016-09-11T07:34:26.926Z,53.5
2016-09-11T07:35:26.413Z,53.48
2016-09-11T07:36:26.134Z,54.03
2016-09-11T07:37:26.270Z,54.62
2016-09-11T07:38:26.207Z,55.57
2016-09-11T07:39:26.228Z,57.1
2016-09-11T07:40:26.375Z,58.53
2016-09-11T07:41:26.586Z,61.19
2016-09-11T07:42:26.320Z,63.36
2016-09-11T07:43:26.446Z,65.43
2016-09-11T07:44:26.379Z,67.44
2016-09-11T07:45:26.396Z,68.37
2016-09-11T07:46:26.424Z,68.69
2016-09-11T07:47:26.466Z,70.43
2016-09-11T07:48:26.473Z,71.84
2016-09-11T07:49:26.506Z,71.23
2016-09-11T07:50:26.860Z,72.3
2016-09-11T07:51:26.577Z,72.88
2016-09-11T07:52:26.594Z,73.16
2016-09-11T07:53:26.608Z,73.42
2016-09-11T07:54:26.653Z,74
2016-09-11T07:55:26.693Z,74.48
2016-09-11T07:56:26.875Z,73.22
2016-09-11T07:57:27.082Z,73.61
2016-09-11T07:58:27.164Z,73.52
2016-09-11T07:59:26.793Z,73.8
2016-09-11T08:00:26.815Z,74.38
2016-09-11T08:01:26.927Z,73.71
2016-09-11T08:02:26.867Z,73.65
2016-09-11T08:03:26.903Z,73.94
2016-09-11T08:04:26.923Z,72.78
2016-09-11T08:05:26.966Z,72.3
2016-09-11T08:06:26.997Z,72.39
2016-09-11T08:07:27.015Z,72.88
2016-09-11T08:08:27.044Z,72.88
2016-09-11T08:09:27.071Z,72.49
2016-09-11T08:10:27.162Z,72.78
2016-09-11T08:11:27.147Z,72.39
2016-09-11T08:12:27.446Z,72.97
2016-09-11T08:13:27.243Z,73.74
2016-09-11T08:14:27.197Z,74.13
2016-09-11T08:15:27.259Z,73.84
2016-09-11T08:16:27.252Z,73.97
2016-09-11T08:17:27.288Z,74.52
2016-09-11T08:18:27.340Z,74.46
2016-09-11T08:19:27.344Z,74.17
2016-09-11T08:20:27.368Z,75.52
2016-09-11T08:21:27.379Z,75.04
2016-09-11T08:22:27.470Z,74.94
2016-09-11T08:23:27.494Z,75.04
2016-09-11T08:24:27.771Z,75.95
2016-09-11T08:25:27.556Z,75.52
2016-09-11T08:26:27.652Z,75.17
2016-09-11T08:27:27.969Z,74.3
2016-09-11T08:28:27.646Z,75.37
2016-09-11T08:29:27.605Z,74.59
2016-09-11T08:30:27.944Z,75.17
2016-09-11T08:31:27.666Z,76.04
2016-09-11T08:32:27.690Z,74.98
2016-09-11T08:33:27.721Z,74.88
2016-09-11T08:34:27.745Z,75.62
2016-09-11T08:35:27.842Z,76.39
2016-09-11T08:36:27.827Z,76.59
2016-09-11T08:37:28.134Z,77.26
2016-09-11T08:38:28.150Z,77.94
2016-09-11T08:39:27.889Z,77.65
2016-09-11T08:40:27.973Z,76.49
2016-09-11T08:41:28.242Z,76.87
2016-09-11T08:42:27.993Z,77.36
2016-09-11T08:43:27.986Z,75.52
2016-09-11T08:44:28.035Z,75.81
2016-09-11T08:45:28.033Z,76.59
2016-09-11T08:46:28.072Z,75.97
2016-09-11T08:47:28.097Z,75.87
2016-09-11T08:48:28.214Z,76.64
2016-09-11T08:49:28.155Z,76.35
2016-09-11T08:50:28.192Z,77.26
2016-09-11T08:51:28.205Z,76.97
2016-09-11T08:52:28.239Z,77.36
2016-09-11T08:53:28.274Z,77.75
2016-09-11T08:54:28.771Z,77.17
2016-09-11T08:55:28.324Z,76.59
2016-09-11T08:56:28.348Z,76.33
2016-09-11T08:57:28.366Z,77.11
2016-09-11T08:58:28.388Z,75.65
2016-09-11T08:59:28.447Z,77.11
2016-09-11T09:00:28.455Z,76.33
2016-09-11T09:01:28.782Z,76.24
2016-09-11T09:02:28.514Z,76.33
2016-09-11T09:03:28.645Z,76.14
2016-09-11T09:04:28.875Z,75.65
2016-09-11T09:05:28.594Z,76.56
2016-09-11T09:06:28.624Z,76.76
2016-09-11T09:07:28.705Z,76.37
2016-09-11T09:08:28.678Z,76.76
2016-09-11T09:09:29.030Z,77.34
2016-09-11T09:10:28.738Z,77.53
2016-09-11T09:11:28.764Z,77.24
2016-09-11T09:12:29.091Z,77.63
2016-09-11T09:13:28.808Z,77.24
2016-09-11T09:14:28.875Z,78.08
2016-09-11T09:15:29.174Z,77.78
2016-09-11T09:16:28.899Z,77.88
2016-09-11T09:17:28.914Z,78.08
2016-09-11T09:18:29.079Z,78.31
2016-09-11T09:19:29.068Z,77.5
2016-09-11T09:20:29.050Z,76.86
2016-09-11T09:21:29.034Z,76.86
2016-09-11T09:22:29.064Z,77.73
2016-09-11T09:23:29.089Z,77.63
2016-09-11T09:24:29.122Z,77.73
2016-09-11T09:25:29.608Z,76.37
2016-09-11T09:26:29.310Z,76.18
2016-09-11T09:27:29.397Z,76.82
2016-09-11T09:28:29.224Z,77.53
2016-09-11T09:29:29.608Z,77.24
2016-09-11T09:30:29.354Z,77.53
2016-09-11T09:31:29.645Z,77.98
2016-09-11T09:32:29.653Z,79.04
2016-09-11T09:33:29.671Z,79.24
2016-09-11T09:34:29.383Z,77.78
2016-09-11T09:35:29.446Z,78.17
2016-09-11T09:36:29.793Z,78.36
2016-09-11T09:37:29.572Z,78.36
2016-09-11T09:38:29.636Z,78.75
2016-09-11T09:39:29.606Z,78.75
2016-09-11T09:40:29.555Z,78.08
2016-09-11T09:41:29.642Z,78.66
2016-09-11T09:42:29.611Z,78.08
2016-09-11T09:43:29.646Z,79.91
2016-09-11T09:44:29.666Z,79.97
2016-09-11T09:45:29.703Z,79.49
2016-09-11T09:46:29.730Z,78.81
2016-09-11T09:47:30.053Z,78.17
2016-09-11T09:48:29.823Z,78.94
2016-09-11T09:49:29.818Z,79.33
2016-09-11T09:50:29.989Z,78.46
2016-09-11T09:51:30.193Z,78.36
2016-09-11T09:52:30.215Z,78.08
2016-09-11T09:53:30.087Z,78.41
2016-09-11T09:54:29.957Z,78.11
2016-09-11T09:55:29.979Z,78.11
2016-09-11T09:56:29.997Z,77.44
2016-09-11T09:57:30.061Z,77.24
2016-09-11T09:58:30.413Z,77.57
2016-09-11T09:59:30.093Z,76.6
2016-09-11T10:00:30.340Z,75.63
2016-09-11T10:01:30.127Z,75.28
2016-09-11T10:02:30.496Z,74.51
2016-09-11T10:03:30.512Z,75.28
2016-09-11T10:04:30.224Z,76.15
2016-09-11T10:05:30.314Z,75.77
2016-09-11T10:06:30.272Z,76.06
2016-09-11T10:07:30.319Z,74.45
2016-09-11T10:08:30.353Z,74.64
2016-09-11T10:09:30.371Z,74.54
2016-09-11T10:10:30.399Z,74.93
2016-09-11T10:11:30.745Z,74.74
2016-09-11T10:12:30.768Z,75.32
2016-09-11T10:13:30.852Z,76.45
2016-09-11T10:14:30.756Z,76.89
2016-09-11T10:15:30.536Z,77.09
2016-09-11T10:16:30.587Z,77.14
2016-09-11T10:17:30.774Z,78.41
2016-09-11T10:18:30.625Z,78.85
2016-09-11T10:19:30.653Z,78.11
2016-09-11T10:20:30.662Z,78.31
2016-09-11T10:21:30.809Z,78.69
2016-09-11T10:22:30.744Z,77.47
2016-09-11T10:23:30.789Z,78.15
2016-09-11T10:24:30.822Z,77.86
2016-09-11T10:25:31.149Z,77.76
2016-09-11T10:26:31.154Z,76.15
2016-09-11T10:27:30.876Z,76.6
2016-09-11T10:28:31.205Z,76.7
2016-09-11T10:29:31.247Z,76.21
2016-09-11T10:30:30.944Z,76.41
2016-09-11T10:31:30.969Z,76.6
2016-09-11T10:32:31.023Z,75.48
2016-09-11T10:33:31.037Z,74.9
2016-09-11T10:34:31.069Z,75.13
2016-09-11T10:35:31.125Z,74.16
2016-09-11T10:36:31.129Z,72.83
2016-09-11T10:37:31.173Z,72.55
2016-09-11T10:38:31.251Z,73.13
2016-09-11T10:39:31.273Z,72.74
2016-09-11T10:40:31.234Z,73.77
2016-09-11T10:41:31.285Z,75.9
2016-09-11T10:42:31.610Z,76.41
2016-09-11T10:43:31.336Z,76.6
2016-09-11T10:44:31.340Z,76.41
2016-09-11T10:45:31.445Z,77.14
2016-09-11T10:46:31.417Z,78.21
2016-09-11T10:47:31.431Z,76.89
2016-09-11T10:48:31.786Z,76.7
2016-09-11T10:49:31.526Z,76.37
2016-09-11T10:50:31.589Z,77.57
2016-09-11T10:51:31.564Z,75.83
2016-09-11T10:52:31.612Z,75.96
2016-09-11T10:53:31.613Z,74.99
2016-09-11T10:54:31.648Z,74.45
2016-09-11T10:55:31.693Z,74
2016-09-11T10:56:31.684Z,73.61
2016-09-11T10:57:31.745Z,73.07
2016-09-11T10:58:31.779Z,73.16
2016-09-11T10:59:31.773Z,74.49
2016-09-11T11:00:31.804Z,72.64
2016-09-11T11:01:32.453Z,72.64
2016-09-11T11:02:31.852Z,73.22
2016-09-11T11:03:31.939Z,72.19
2016-09-11T11:04:31.966Z,72.06
2016-09-11T11:05:32.281Z,72.58
2016-09-11T11:06:31.964Z,73.16
2016-09-11T11:07:32.309Z,72.97
2016-09-11T11:08:32.065Z,72.19
2016-09-11T11:09:32.372Z,72.35
2016-09-11T11:10:32.244Z,73.13
2016-09-11T11:11:32.148Z,73.9
2016-09-11T11:12:32.152Z,74.49
2016-09-11T11:13:32.175Z,72.74
2016-09-11T11:14:32.232Z,72.89
2016-09-11T11:15:32.333Z,72.61
2016-09-11T11:16:32.281Z,72.61
2016-09-11T11:17:32.303Z,72.61
2016-09-11T11:18:32.354Z,74.16
2016-09-11T11:19:32.360Z,74.74
2016-09-11T11:20:32.698Z,73.42
2016-09-11T11:21:32.448Z,72.83
2016-09-11T11:22:32.484Z,73.13
2016-09-11T11:23:32.461Z,72.97
2016-09-11T11:24:32.794Z,73.32
2016-09-11T11:25:32.545Z,73.03
2016-09-11T11:26:32.551Z,73.71
2016-09-11T11:27:32.585Z,72.89
2016-09-11T11:28:32.860Z,72.89
2016-09-11T11:29:32.633Z,72.99
2016-09-11T11:30:33.147Z,72.99
2016-09-11T11:31:33.036Z,73.54
2016-09-11T11:32:33.009Z,73.54
2016-09-11T11:33:33.083Z,73.93
2016-09-11T11:34:32.770Z,74.86
2016-09-11T11:35:33.113Z,75.15
2016-09-11T11:36:32.930Z,74.47
2016-09-11T11:37:32.893Z,74.47
2016-09-11T11:38:32.944Z,74.12
2016-09-11T11:39:32.919Z,73.35
2016-09-11T11:40:32.952Z,73.05
2016-09-11T11:41:32.975Z,72.71
2016-09-11T11:42:33.011Z,71.93
2016-09-11T11:43:33.358Z,72.31
2016-09-11T11:44:33.126Z,72.31
2016-09-11T11:45:33.135Z,71.93
2016-09-11T11:46:33.231Z,71.67
2016-09-11T11:47:33.472Z,72.31
2016-09-11T11:49:01.950Z,73.64
2016-09-11T11:49:35.179Z,73.83
2016-09-11T11:50:33.298Z,73.73
2016-09-11T11:51:33.292Z,74.26
2016-09-11T11:52:33.841Z,73.77
2016-09-11T11:53:33.647Z,73.48
2016-09-11T11:54:33.344Z,74.74
2016-09-11T11:55:33.369Z,74.41
2016-09-11T11:56:33.415Z,74.41
2016-09-11T11:57:33.456Z,73.77
2016-09-11T11:58:33.457Z,72.71
2016-09-11T11:59:33.603Z,71.28
2016-09-11T12:00:33.832Z,71.58
2016-09-11T12:01:33.552Z,70.93
2016-09-11T12:02:33.903Z,68.44
2016-09-11T12:03:33.618Z,68.83
2016-09-11T12:04:33.702Z,69.41
2016-09-11T12:05:33.745Z,69.8
2016-09-11T12:06:33.685Z,70.15
2016-09-11T12:07:33.753Z,69.7
2016-09-11T12:08:34.062Z,69.06
2016-09-11T12:09:33.782Z,69.02
2016-09-11T12:10:33.835Z,69.12
2016-09-11T12:11:34.358Z,69.22
2016-09-11T12:12:34.324Z,69.96
2016-09-11T12:13:34.304Z,69.93
2016-09-11T12:14:33.979Z,69.93
2016-09-11T12:15:33.979Z,69.96
2016-09-11T12:16:33.993Z,70.8
2016-09-11T12:17:34.081Z,72.45
2016-09-11T12:18:34.042Z,72.25
2016-09-11T12:19:34.385Z,72.09
2016-09-11T12:20:34.314Z,71.03
2016-09-11T12:21:34.414Z,70.64
2016-09-11T12:22:34.326Z,71.03
2016-09-11T12:23:34.390Z,70.67
2016-09-11T12:24:34.374Z,71.16
2016-09-11T12:25:34.419Z,70.29
2016-09-11T12:26:34.348Z,70.67
2016-09-11T12:27:34.401Z,70.77
2016-09-11T12:28:34.653Z,71.06
2016-09-11T12:29:34.373Z,71.64
2016-09-11T12:30:34.704Z,72.42
2016-09-11T12:31:34.721Z,73.46
2016-09-11T12:32:34.754Z,73.13
2016-09-11T12:33:34.477Z,73.71
2016-09-11T12:34:34.817Z,73.52
2016-09-11T12:35:34.830Z,72
2016-09-11T12:36:34.571Z,72.55
2016-09-11T12:37:34.911Z,73.71
2016-09-11T12:38:34.974Z,73.71
2016-09-11T12:39:34.673Z,73.16
2016-09-11T12:40:34.682Z,70.73
2016-09-11T12:41:34.730Z,71.36
2016-09-11T12:42:34.756Z,71.9
2016-09-11T12:43:34.762Z,72.58
2016-09-11T12:44:34.799Z,70.83
2016-09-11T12:45:35.136Z,69.41
2016-09-11T12:46:35.183Z,69.7
2016-09-11T12:47:34.887Z,70.77
2016-09-11T12:48:34.942Z,70.48
2016-09-11T12:49:34.934Z,70.39
2016-09-11T12:50:34.977Z,70
2016-09-11T12:51:35.312Z,69.22
2016-09-11T12:52:35.168Z,69.02
2016-09-11T12:53:35.069Z,68.48
2016-09-11T12:54:35.082Z,68.48